Time;durP1;ratioP1;P1;durP2;ratioP2;P2;SDS_P1;SDS_P2;PMS_P1;PMS_P2;Temp;Humidity;BMP_temperature;BMP_pressure;BME280_temperature;BME280_humidity;BME280_pressure;Samples;Min_cycle;Max_cycle;Signal;HPM_P1;HPM_P2
2021/06/09 00:01:57;;;;;;;17.77;15.23;;;19.70;1.00;;;;;;4978248;28;20164;-85
2021/06/09 00:04:23;;;;;;;16.23;14.50;;;19.70;1.00;;;;;;4977065;28;20183;-85
2021/06/09 00:06:49;;;;;;;18.60;15.43;;;19.70;1.00;;;;;;4977989;28;20163;-85
2021/06/09 00:09:18;;;;;;;16.00;14.20;;;19.90;1.00;;;;;;4978069;28;20167;-84
2021/06/09 00:11:43;;;;;;;17.30;15.27;;;20.00;1.00;;;;;;4977556;28;20180;-85
2021/06/09 00:14:10;;;;;;;18.60;15.30;;;19.90;1.00;;;;;;4975548;28;20668;-84
2021/06/09 00:16:42;;;;;;;18.57;16.67;;;20.00;1.00;;;;;;4978211;28;20637;-85
2021/06/09 00:19:11;;;;;;;20.93;16.43;;;20.00;1.00;;;;;;4981213;28;20176;-85
2021/06/09 00:22:10;;;;;;;18.80;16.80;;;19.90;1.00;;;;;;4981807;28;20191;-85
2021/06/09 00:24:29;;;;;;;17.70;15.87;;;20.00;1.00;;;;;;4981432;28;20208;-85
2021/06/09 00:27:00;;;;;;;19.77;17.67;;;20.00;1.00;;;;;;4978211;28;20620;-85
2021/06/09 00:29:28;;;;;;;18.97;16.97;;;19.90;1.00;;;;;;4976884;28;20270;-85
2021/06/09 00:32:12;;;;;;;20.40;17.47;;;19.80;1.00;;;;;;4978229;28;20180;-85
2021/06/09 00:34:40;;;;;;;20.17;18.07;;;19.80;1.00;;;;;;4978709;28;20219;-85
2021/06/09 00:37:09;;;;;;;19.33;17.37;;;19.80;1.00;;;;;;4979565;28;20243;-85
2021/06/09 00:39:42;;;;;;;21.73;17.97;;;20.00;1.00;;;;;;4978586;28;20250;-85
2021/06/09 00:42:24;;;;;;;19.60;17.00;;;20.10;1.00;;;;;;4985870;28;20580;-86
2021/06/09 00:45:22;;;;;;;19.00;17.17;;;20.20;1.00;;;;;;4986328;28;20179;-84
2021/06/09 00:47:54;;;;;;;20.53;17.53;;;20.10;1.00;;;;;;4985647;28;20173;-85
2021/06/09 00:50:25;;;;;;;18.90;16.87;;;20.20;1.00;;;;;;4985150;28;20176;-85
2021/06/09 00:56:36;;;;;;;21.70;17.53;;;20.20;1.00;;;;;;4985072;28;20267;-84
2021/06/09 00:59:08;;;;;;;21.87;18.43;;;20.00;1.00;;;;;;4988538;28;20196;-85
2021/06/09 01:02:14;;;;;;;20.80;18.33;;;19.80;1.00;;;;;;4988483;28;20195;-85
2021/06/09 01:04:40;;;;;;;23.23;20.43;;;19.90;1.00;;;;;;4981585;28;20185;-85
2021/06/09 01:07:11;;;;;;;23.23;20.90;;;19.80;1.00;;;;;;4982923;28;20545;-85
2021/06/09 01:09:38;;;;;;;23.40;20.87;;;19.60;1.00;;;;;;4978889;28;20183;-84
2021/06/09 01:12:04;;;;;;;24.43;21.77;;;19.50;1.00;;;;;;4977721;28;20179;-85
2021/06/09 01:14:33;;;;;;;23.20;20.70;;;19.40;1.00;;;;;;4975974;28;20247;-84
2021/06/09 01:16:59;;;;;;;22.53;20.10;;;19.30;1.00;;;;;;4975470;28;20182;-85
2021/06/09 01:19:25;;;;;;;23.13;20.63;;;19.50;1.00;;;;;;4980318;28;20222;-84
2021/06/09 01:21:56;;;;;;;24.03;21.57;;;19.50;1.00;;;;;;4985043;28;20179;-84
2021/06/09 01:24:23;;;;;;;24.00;21.57;;;19.60;1.00;;;;;;4988830;28;20230;-84
2021/06/09 01:26:49;;;;;;;24.23;21.37;;;19.60;1.00;;;;;;4984437;28;20255;-85
2021/06/09 01:29:17;;;;;;;22.50;20.10;;;19.60;1.00;;;;;;4989687;28;20185;-85
2021/06/09 01:31:46;;;;;;;24.30;20.20;;;19.50;1.00;;;;;;4989430;28;20252;-85
2021/06/09 01:34:11;;;;;;;22.70;20.50;;;19.50;1.00;;;;;;4981164;28;20247;-85
2021/06/09 01:36:39;;;;;;;22.77;20.33;;;19.70;1.00;;;;;;4978740;28;20160;-84
2021/06/09 01:39:14;;;;;;;24.50;21.97;;;19.70;1.00;;;;;;4977638;28;20189;-85
2021/06/09 01:41:50;;;;;;;25.47;22.83;;;19.50;1.00;;;;;;4978206;28;20179;-85
2021/06/09 01:44:22;;;;;;;27.90;24.13;;;19.50;1.00;;;;;;4975114;28;20369;-85
2021/06/09 01:47:03;;;;;;;25.07;22.20;;;19.40;1.00;;;;;;4975594;28;20152;-84
2021/06/09 01:49:35;;;;;;;28.17;25.17;;;19.50;1.00;;;;;;4975990;28;20210;-84
2021/06/09 01:52:05;;;;;;;28.03;24.67;;;19.40;1.00;;;;;;4975612;28;20202;-85
2021/06/09 01:54:31;;;;;;;26.93;24.03;;;19.40;1.00;;;;;;4975410;28;20207;-84
2021/06/09 01:56:57;;;;;;;31.47;27.17;;;19.50;1.00;;;;;;4974600;28;20243;-84
2021/06/09 01:59:23;;;;;;;29.13;26.10;;;19.70;1.00;;;;;;4974513;28;20183;-85
2021/06/09 02:01:50;;;;;;;30.47;26.93;;;19.60;1.00;;;;;;4976166;28;20175;-85
2021/06/09 02:04:17;;;;;;;29.37;26.30;;;19.70;1.00;;;;;;4975294;28;20802;-86
2021/06/09 02:06:44;;;;;;;30.20;27.00;;;19.70;1.00;;;;;;4974402;28;20186;-86
2021/06/09 02:09:13;;;;;;;31.50;27.40;;;19.80;1.00;;;;;;4974855;28;20179;-86
2021/06/09 02:11:40;;;;;;;30.77;27.47;;;19.80;1.00;;;;;;4975577;28;20656;-86
2021/06/09 02:14:07;;;;;;;33.97;30.37;;;19.80;1.00;;;;;;4991562;28;20367;-86
2021/06/09 02:16:39;;;;;;;35.07;31.33;;;19.90;1.00;;;;;;4984128;28;20226;-85
2021/06/09 02:19:06;;;;;;;33.60;30.10;;;20.10;1.00;;;;;;5007665;28;20399;-85
2021/06/09 02:21:34;;;;;;;36.07;32.17;;;20.00;1.00;;;;;;4975087;28;20179;-86
2021/06/09 02:24:04;;;;;;;35.40;31.60;;;20.00;1.00;;;;;;4974380;28;20200;-86
2021/06/09 02:26:30;;;;;;;32.17;28.87;;;20.00;1.00;;;;;;4975617;28;20168;-85
2021/06/09 02:28:57;;;;;;;32.00;28.60;;;20.00;1.00;;;;;;4989845;28;20186;-86
2021/06/09 02:31:24;;;;;;;28.73;25.63;;;20.00;1.00;;;;;;4976129;28;20169;-85
2021/06/09 02:33:50;;;;;;;29.97;26.77;;;20.10;1.00;;;;;;4975732;28;20214;-85
2021/06/09 02:36:16;;;;;;;29.53;26.33;;;20.00;1.00;;;;;;4976720;28;20173;-85
2021/06/09 02:38:42;;;;;;;27.87;24.93;;;20.00;1.00;;;;;;4995058;28;20241;-83
2021/06/09 02:41:10;;;;;;;30.47;27.20;;;19.80;1.00;;;;;;4989177;28;20172;-84
2021/06/09 02:43:36;;;;;;;33.43;29.57;;;19.70;1.00;;;;;;4977187;28;20175;-84
2021/06/09 02:46:49;;;;;;;33.20;29.60;;;19.70;1.00;;;;;;4979333;28;20226;-84
2021/06/09 02:49:18;;;;;;;35.30;31.53;;;19.40;1.00;;;;;;4923580;29;20196;-84
2021/06/09 02:51:50;;;;;;;37.20;32.80;;;19.20;1.00;;;;;;4975508;28;20188;-84
2021/06/09 02:54:40;;;;;;;36.20;32.30;;;19.20;1.00;;;;;;4978956;28;20849;-84
2021/06/09 02:57:51;;;;;;;37.20;32.20;;;19.10;1.00;;;;;;4977783;28;20286;-84
2021/06/09 03:00:22;;;;;;;39.73;34.03;;;19.00;1.00;;;;;;4968150;28;20185;-84
2021/06/09 03:03:03;;;;;;;39.80;35.43;;;19.00;1.00;;;;;;4980707;28;20172;-84
2021/06/09 03:05:59;;;;;;;39.80;34.53;;;19.00;1.00;;;;;;4988339;28;20199;-84
2021/06/09 03:08:50;;;;;;;42.83;37.33;;;19.00;1.00;;;;;;4984743;28;20299;-84
2021/06/09 03:11:36;;;;;;;44.57;38.57;;;18.80;1.00;;;;;;4986792;28;20207;-84
2021/06/09 03:17:08;;;;;;;50.00;42.97;;;18.90;1.00;;;;;;4985192;28;20271;-84
2021/06/09 03:20:03;;;;;;;50.17;44.13;;;18.90;1.00;;;;;;4979076;28;20186;-83
2021/06/09 03:23:02;;;;;;;49.80;42.53;;;18.70;1.00;;;;;;4979012;28;20176;-83
2021/06/09 03:26:23;;;;;;;52.27;44.07;;;18.60;1.00;;;;;;4977399;28;20176;-83
2021/06/09 03:29:01;;;;;;;52.50;45.20;;;18.50;1.40;;;;;;4937852;29;20218;-84
2021/06/09 03:31:36;;;;;;;53.63;44.80;;;18.40;7.50;;;;;;4978820;28;20171;-84
2021/06/09 03:34:07;;;;;;;53.37;45.97;;;18.40;7.90;;;;;;4978667;28;20218;-84
2021/06/09 03:36:40;;;;;;;50.67;45.17;;;18.50;8.90;;;;;;4978107;28;20228;-84
2021/06/09 03:39:07;;;;;;;58.10;47.40;;;18.50;12.20;;;;;;4978745;28;20168;-84
2021/06/09 03:41:41;;;;;;;53.40;46.03;;;18.40;12.60;;;;;;4976512;28;20583;-84
2021/06/09 03:44:08;;;;;;;52.60;45.33;;;18.40;13.30;;;;;;4977471;28;20555;-84
2021/06/09 03:46:37;;;;;;;55.53;46.63;;;18.40;10.60;;;;;;4978148;28;20201;-83
2021/06/09 03:49:11;;;;;;;54.43;45.57;;;18.20;18.70;;;;;;4977481;28;20180;-84
2021/06/09 03:51:42;;;;;;;58.77;48.40;;;18.10;26.70;;;;;;4976984;28;20270;-84
2021/06/09 03:54:10;;;;;;;55.63;46.83;;;17.90;32.00;;;;;;4978376;28;20215;-84
2021/06/09 03:56:41;;;;;;;59.73;50.47;;;18.00;29.70;;;;;;4978289;28;20197;-84
2021/06/09 03:59:09;;;;;;;56.57;49.20;;;18.00;31.10;;;;;;4977778;28;20531;-84
2021/06/09 04:01:39;;;;;;;58.20;49.07;;;17.90;33.60;;;;;;4978163;28;20172;-84
2021/06/09 04:04:06;;;;;;;58.33;49.73;;;18.00;32.50;;;;;;4977803;28;20171;-84
2021/06/09 04:06:33;;;;;;;59.77;50.23;;;18.10;30.00;;;;;;4978292;28;20191;-85
2021/06/09 04:09:03;;;;;;;57.90;48.90;;;18.30;27.10;;;;;;4978303;28;20506;-84
2021/06/09 04:11:31;;;;;;;59.90;51.77;;;18.10;29.70;;;;;;4978311;28;20195;-84
2021/06/09 04:13:58;;;;;;;66.63;52.87;;;18.20;27.50;;;;;;4977800;28;20214;-84
2021/06/09 04:16:31;;;;;;;65.23;52.93;;;18.40;26.40;;;;;;4976639;28;20195;-84
2021/06/09 04:18:58;;;;;;;57.80;51.00;;;18.50;21.10;;;;;;4978015;28;20176;-84
2021/06/09 04:21:31;;;;;;;67.93;52.90;;;18.60;19.50;;;;;;4978192;28;20200;-84
2021/06/09 04:23:57;;;;;;;62.63;52.97;;;18.50;19.10;;;;;;4979059;28;20635;-85
2021/06/09 04:26:24;;;;;;;65.33;52.57;;;18.50;18.50;;;;;;4977975;28;20620;-85
2021/06/09 04:28:53;;;;;;;57.93;50.67;;;18.50;19.90;;;;;;4992883;28;20242;-84
2021/06/09 04:31:19;;;;;;;60.47;49.70;;;18.60;21.10;;;;;;4977678;28;20261;-84
2021/06/09 04:33:46;;;;;;;62.00;51.03;;;18.60;20.00;;;;;;4976870;28;20211;-84
2021/06/09 04:36:14;;;;;;;62.47;50.37;;;18.60;13.40;;;;;;4978131;28;20155;-85
2021/06/09 04:38:40;;;;;;;57.90;50.53;;;18.60;14.30;;;;;;4978785;28;20263;-87
2021/06/09 04:41:06;;;;;;;61.33;50.23;;;18.60;13.50;;;;;;4978593;28;20262;-85
2021/06/09 04:43:33;;;;;;;59.00;52.43;;;18.70;7.90;;;;;;4978135;28;20186;-85
2021/06/09 04:45:59;;;;;;;57.43;49.87;;;18.50;15.10;;;;;;4977745;28;20184;-84
2021/06/09 04:48:25;;;;;;;60.30;51.83;;;18.60;13.40;;;;;;4976047;28;20179;-83
2021/06/09 04:50:54;;;;;;;57.73;51.43;;;18.60;11.60;;;;;;4979000;28;20168;-84
2021/06/09 04:53:21;;;;;;;59.63;50.83;;;18.90;10.30;;;;;;4977980;28;20211;-84
2021/06/09 04:55:55;;;;;;;56.47;49.60;;;18.80;10.40;;;;;;4976347;28;20184;-84
2021/06/09 04:58:23;;;;;;;55.37;49.33;;;18.90;5.40;;;;;;4976211;28;20178;-84
2021/06/09 05:00:51;;;;;;;63.90;51.80;;;19.00;1.00;;;;;;4977642;28;20182;-84
2021/06/09 05:03:17;;;;;;;56.47;49.23;;;19.20;1.00;;;;;;4980492;28;20670;-85
2021/06/09 05:05:44;;;;;;;61.17;50.20;;;18.80;1.00;;;;;;4984119;28;20644;-84
2021/06/09 05:08:10;;;;;;;57.07;50.40;;;18.60;6.80;;;;;;4981987;28;20247;-83
2021/06/09 05:10:38;;;;;;;55.43;48.93;;;18.80;1.00;;;;;;4986793;28;20168;-83
2021/06/09 05:13:05;;;;;;;58.33;50.43;;;18.50;1.00;;;;;;4995171;28;20223;-83
2021/06/09 05:15:36;;;;;;;56.17;50.07;;;18.40;5.00;;;;;;4987845;28;20238;-84
2021/06/09 05:18:08;;;;;;;55.90;49.03;;;18.50;3.80;;;;;;4976139;28;20254;-84
2021/06/09 05:20:37;;;;;;;55.30;48.97;;;18.60;1.00;;;;;;4976486;28;20164;-83
2021/06/09 05:23:08;;;;;;;55.63;49.53;;;18.60;1.00;;;;;;4976879;28;20179;-84
2021/06/09 05:25:36;;;;;;;52.13;46.50;;;18.60;1.00;;;;;;4977737;28;20192;-84
2021/06/09 05:28:05;;;;;;;57.87;48.87;;;18.90;1.00;;;;;;4976212;28;20175;-85
2021/06/09 05:30:32;;;;;;;56.73;48.73;;;19.10;1.00;;;;;;4978238;28;20172;-84
2021/06/09 05:32:59;;;;;;;53.73;48.10;;;19.10;1.00;;;;;;4983370;28;20171;-84
2021/06/09 05:35:25;;;;;;;53.43;46.20;;;19.10;1.00;;;;;;4980032;28;20180;-83
2021/06/09 05:37:52;;;;;;;51.87;46.27;;;19.10;1.00;;;;;;4979543;28;20179;-83
2021/06/09 05:40:22;;;;;;;50.60;45.10;;;19.00;1.00;;;;;;4979076;28;20539;-83
2021/06/09 05:42:50;;;;;;;49.30;43.93;;;19.00;1.00;;;;;;4998514;28;20214;-83
2021/06/09 05:45:37;;;;;;;50.30;44.33;;;19.00;1.00;;;;;;4997842;28;20335;-84
2021/06/09 05:48:04;;;;;;;51.60;42.00;;;19.20;1.00;;;;;;4996506;28;20269;-86
2021/06/09 05:50:31;;;;;;;49.03;42.50;;;19.40;1.00;;;;;;4995907;28;20209;-84
2021/06/09 05:53:04;;;;;;;49.27;43.07;;;19.50;1.00;;;;;;4994633;28;20266;-84
2021/06/09 05:55:32;;;;;;;47.87;42.63;;;19.60;1.00;;;;;;4993244;28;20190;-85
2021/06/09 05:58:03;;;;;;;47.87;42.70;;;19.70;1.00;;;;;;4984062;28;20200;-83
2021/06/09 06:00:31;;;;;;;49.20;41.33;;;19.80;1.00;;;;;;4984078;28;20247;-83
2021/06/09 06:02:57;;;;;;;49.37;42.90;;;19.60;1.00;;;;;;4995119;28;20221;-83
2021/06/09 06:05:24;;;;;;;53.10;43.23;;;19.70;1.00;;;;;;4995541;28;20179;-86
2021/06/09 06:07:53;;;;;;;46.87;41.47;;;19.40;1.00;;;;;;4997875;28;20178;-86
2021/06/09 06:10:20;;;;;;;46.90;41.23;;;19.30;1.00;;;;;;4995567;28;20176;-82
2021/06/09 06:12:50;;;;;;;49.37;41.93;;;19.30;1.00;;;;;;4993894;28;20279;-84
2021/06/09 06:15:16;;;;;;;46.40;41.30;;;19.10;1.00;;;;;;4990247;28;20215;-85
2021/06/09 06:17:43;;;;;;;47.23;41.37;;;19.30;1.00;;;;;;5002797;28;20167;-85
2021/06/09 06:20:14;;;;;;;47.80;40.27;;;19.20;1.00;;;;;;4995292;28;20666;-84
2021/06/09 06:23:00;;;;;;;43.10;37.67;;;19.20;1.00;;;;;;5011386;28;20701;-85
2021/06/09 06:25:27;;;;;;;44.87;39.27;;;19.20;1.00;;;;;;4994990;28;20423;-84
2021/06/09 06:27:55;;;;;;;44.47;37.40;;;19.40;1.00;;;;;;4994852;28;20199;-86
2021/06/09 06:30:23;;;;;;;41.57;37.10;;;19.40;1.00;;;;;;4995505;28;20181;-83
2021/06/09 06:32:57;;;;;;;40.20;35.80;;;19.40;1.00;;;;;;4994919;28;20171;-84
2021/06/09 06:35:26;;;;;;;40.40;36.00;;;19.40;1.00;;;;;;4992919;28;20220;-85
2021/06/09 06:37:52;;;;;;;37.00;32.53;;;19.50;1.00;;;;;;4996845;28;20155;-85
2021/06/09 06:40:23;;;;;;;35.00;31.47;;;19.50;1.00;;;;;;4996909;28;20190;-85
2021/06/09 06:42:51;;;;;;;35.37;30.20;;;19.60;1.00;;;;;;4997164;28;20609;-86
2021/06/09 06:45:18;;;;;;;35.23;30.27;;;19.70;1.00;;;;;;4996588;28;20179;-85
2021/06/09 06:47:47;;;;;;;37.20;29.90;;;20.00;1.00;;;;;;5000867;28;20257;-84
2021/06/09 06:50:18;;;;;;;33.83;28.80;;;20.20;1.00;;;;;;4995843;28;20175;-83
2021/06/09 06:52:44;;;;;;;32.47;29.00;;;20.10;1.00;;;;;;4995039;28;20183;-84
2021/06/09 06:55:11;;;;;;;33.93;28.67;;;20.10;1.00;;;;;;4996487;28;20207;-84
2021/06/09 06:57:37;;;;;;;31.30;27.73;;;20.10;1.00;;;;;;4996403;28;20209;-87
2021/06/09 07:00:11;;;;;;;31.20;27.80;;;20.10;1.00;;;;;;4996351;28;20190;-86
2021/06/09 07:02:40;;;;;;;30.03;26.73;;;20.20;1.00;;;;;;4995423;28;20175;-85
2021/06/09 07:05:12;;;;;;;29.73;26.13;;;20.10;1.00;;;;;;4995435;28;20171;-86
2021/06/09 07:07:42;;;;;;;31.03;26.80;;;20.10;1.00;;;;;;4997328;28;20589;-84
2021/06/09 07:10:13;;;;;;;27.73;24.63;;;20.00;1.00;;;;;;4996693;28;20236;-83
2021/06/09 07:12:40;;;;;;;30.07;24.17;;;20.20;1.00;;;;;;4995645;28;20186;-85
2021/06/09 07:15:11;;;;;;;29.00;24.17;;;20.30;1.00;;;;;;5001874;28;20206;-82
2021/06/09 07:17:48;;;;;;;28.13;24.47;;;20.30;1.00;;;;;;5010208;28;20187;-86
2021/06/09 07:20:14;;;;;;;29.20;25.17;;;20.40;1.00;;;;;;5005777;28;20174;-84
2021/06/09 07:22:41;;;;;;;26.60;23.37;;;20.50;1.00;;;;;;5009057;28;20155;-83
2021/06/09 07:25:09;;;;;;;29.07;24.60;;;20.60;1.00;;;;;;4996498;28;20168;-83
2021/06/09 07:27:37;;;;;;;26.67;23.30;;;20.70;1.00;;;;;;4990209;28;20175;-86
2021/06/09 07:30:07;;;;;;;26.20;22.73;;;20.80;1.00;;;;;;4984913;28;20251;-84
2021/06/09 07:32:36;;;;;;;24.43;21.93;;;20.80;1.00;;;;;;4983056;28;20184;-85
2021/06/09 07:35:05;;;;;;;25.73;22.73;;;20.90;1.00;;;;;;4998278;28;20246;-84
2021/06/09 07:37:35;;;;;;;22.77;20.37;;;20.90;1.00;;;;;;4998910;28;20179;-84
2021/06/09 07:40:12;;;;;;;24.67;20.13;;;21.10;1.00;;;;;;5010771;28;20180;-85
2021/06/09 07:42:40;;;;;;;23.90;19.30;;;21.20;99.90;;;;;;5018753;28;20273;-84
2021/06/09 07:45:13;;;;;;;25.30;21.73;;;21.10;99.90;;;;;;5017612;28;20164;-84
2021/06/09 07:47:45;;;;;;;25.67;22.97;;;21.00;1.00;;;;;;4998752;28;20173;-83
2021/06/09 07:50:13;;;;;;;28.00;22.93;;;21.10;1.00;;;;;;4999177;28;20165;-85
2021/06/09 07:52:41;;;;;;;26.70;22.53;;;21.40;1.00;;;;;;4996373;28;20184;-79
2021/06/09 07:55:10;;;;;;;26.80;23.90;;;21.70;1.00;;;;;;4996765;28;20274;-82
2021/06/09 07:57:39;;;;;;;29.53;24.23;;;21.90;99.90;;;;;;5011919;28;20675;-83
2021/06/09 08:00:11;;;;;;;26.77;22.70;;;21.80;99.90;;;;;;5017571;28;20176;-84
2021/06/09 08:02:53;;;;;;;24.47;21.00;;;21.90;99.90;;;;;;5020371;28;20173;-82
2021/06/09 08:05:20;;;;;;;25.37;22.37;;;21.90;99.90;;;;;;5017862;28;20207;-82
2021/06/09 08:07:45;;;;;;;24.47;21.93;;;21.70;99.90;;;;;;5018691;28;20595;-82
2021/06/09 08:10:12;;;;;;;25.63;22.07;;;21.90;99.90;;;;;;5026737;28;20620;-82
2021/06/09 08:12:39;;;;;;;26.23;20.20;;;21.90;16.70;;;;;;5017582;28;20196;-82
2021/06/09 08:15:07;;;;;;;23.80;21.30;;;22.10;1.00;;;;;;4998614;28;20272;-83
2021/06/09 08:17:44;;;;;;;28.27;20.00;;;22.20;99.90;;;;;;4997866;28;20237;-94
2021/06/09 08:20:18;;;;;;;26.30;19.90;;;22.20;37.50;;;;;;4996821;28;20639;-82
2021/06/09 08:22:45;;;;;;;29.13;20.90;;;22.10;1.00;;;;;;4997525;28;20260;-82
2021/06/09 08:25:19;;;;;;;25.47;20.07;;;22.20;1.00;;;;;;5017520;28;20515;-83
2021/06/09 08:27:47;;;;;;;26.80;22.27;;;22.30;1.00;;;;;;5015896;28;20185;-84
2021/06/09 08:30:14;;;;;;;26.20;21.13;;;22.50;99.90;;;;;;5025373;28;20170;-83
2021/06/09 08:32:40;;;;;;;28.10;23.37;;;22.80;99.90;;;;;;5018225;28;20170;-84
2021/06/09 08:35:08;;;;;;;26.70;20.90;;;23.00;99.90;;;;;;4997142;28;20226;-84
2021/06/09 08:37:34;;;;;;;24.67;20.43;;;23.10;1.00;;;;;;4997675;28;20186;-83
2021/06/09 08:40:00;;;;;;;23.63;19.97;;;23.00;99.90;;;;;;4994098;28;20262;-81
2021/06/09 08:42:27;;;;;;;23.93;19.17;;;23.00;89.90;;;;;;4997155;28;20214;-82
2021/06/09 08:44:53;;;;;;;24.43;18.83;;;23.10;1.00;;;;;;4996157;28;20180;-82
2021/06/09 08:47:21;;;;;;;24.67;18.90;;;23.10;99.90;;;;;;5000374;28;20170;-82
2021/06/09 08:49:48;;;;;;;21.33;16.53;;;23.20;1.00;;;;;;5015360;28;20241;-82
2021/06/09 08:52:14;;;;;;;20.57;17.17;;;23.40;30.30;;;;;;5016733;28;20176;-83
2021/06/09 08:54:44;;;;;;;21.23;16.07;;;23.50;99.90;;;;;;5014440;28;20214;-81
2021/06/09 08:57:10;;;;;;;20.47;16.60;;;23.70;99.90;;;;;;5013852;28;20203;-82
2021/06/09 08:59:37;;;;;;;19.43;16.80;;;23.80;1.00;;;;;;5015947;28;20164;-81
2021/06/09 09:02:03;;;;;;;23.03;18.83;;;23.80;1.00;;;;;;5016494;28;20169;-82
2021/06/09 09:04:32;;;;;;;19.60;17.50;;;23.60;99.90;;;;;;5017053;28;20202;-82
2021/06/09 09:06:58;;;;;;;21.43;17.37;;;23.40;1.00;;;;;;5014728;28;20175;-81
2021/06/09 09:09:25;;;;;;;22.70;16.00;;;23.50;1.00;;;;;;5018818;28;20168;-81
2021/06/09 09:11:51;;;;;;;19.20;15.60;;;23.60;1.00;;;;;;5018592;28;20270;-80
2021/06/09 09:14:18;;;;;;;18.23;15.00;;;23.80;99.90;;;;;;5017380;28;20306;-80
2021/06/09 09:17:16;;;;;;;16.47;14.53;;;23.70;99.90;;;;;;5017548;28;20170;-81
2021/06/09 09:19:44;;;;;;;17.10;14.27;;;23.50;99.90;;;;;;4994253;28;20180;-83
2021/06/09 09:22:32;;;;;;;16.70;14.07;;;23.40;99.90;;;;;;5016956;28;20245;-81
2021/06/09 09:24:58;;;;;;;21.03;14.10;;;23.30;1.00;;;;;;4995408;28;21087;-82
2021/06/09 09:27:28;;;;;;;17.33;15.13;;;23.50;1.00;;;;;;4995514;28;20654;-80
2021/06/09 09:30:08;;;;;;;17.47;15.17;;;22.90;99.90;;;;;;4995833;28;20186;-80
2021/06/09 09:32:34;;;;;;;18.87;16.20;;;22.90;99.90;;;;;;4995263;28;20162;-81
2021/06/09 09:35:11;;;;;;;16.13;14.50;;;23.00;99.90;;;;;;4996040;28;20191;-80
2021/06/09 09:37:38;;;;;;;17.50;13.67;;;23.10;1.00;;;;;;4995230;28;20270;-82
2021/06/09 09:40:15;;;;;;;15.53;13.93;;;23.40;99.90;;;;;;4995880;28;20171;-80
2021/06/09 09:42:49;;;;;;;16.13;14.13;;;23.40;99.90;;;;;;4997474;28;20531;-79
2021/06/09 09:45:22;;;;;;;15.43;13.93;;;23.60;99.90;;;;;;4993914;28;20641;-80
2021/06/09 09:48:08;;;;;;;16.03;13.33;;;23.70;1.00;;;;;;4994497;28;20703;-79
2021/06/09 09:50:45;;;;;;;19.23;14.47;;;24.00;9.10;;;;;;4997881;28;20180;-80
2021/06/09 09:53:22;;;;;;;14.07;12.67;;;24.20;99.90;;;;;;4983468;28;20185;-79
2021/06/09 09:56:05;;;;;;;17.73;13.57;;;24.40;93.40;;;;;;4998596;28;20186;-80
2021/06/09 09:58:33;;;;;;;16.03;14.37;;;24.40;16.20;;;;;;4999523;28;20168;-82
2021/06/09 10:01:20;;;;;;;16.00;14.23;;;24.20;99.90;;;;;;4997971;28;20180;-79
2021/06/09 10:03:48;;;;;;;14.67;12.60;;;24.00;99.90;;;;;;5008578;28;20160;-80
2021/06/09 10:06:22;;;;;;;18.33;14.10;;;23.90;1.00;;;;;;5023462;28;20176;-79
2021/06/09 10:08:50;;;;;;;15.73;14.07;;;24.00;99.90;;;;;;5004862;28;20275;-80
2021/06/09 10:11:17;;;;;;;13.90;12.37;;;23.80;1.00;;;;;;5008422;28;20175;-79
2021/06/09 10:13:43;;;;;;;23.00;20.10;;;23.90;99.90;;;;;;5004069;28;20204;-78
2021/06/09 10:16:22;;;;;;;16.13;13.30;;;23.80;5.80;;;;;;5002635;28;20186;-79
2021/06/09 10:19:00;;;;;;;17.00;11.83;;;23.80;99.90;;;;;;5002840;28;20180;-78
2021/06/09 10:21:26;;;;;;;16.23;12.27;;;23.90;1.00;;;;;;5005854;28;20163;-80
2021/06/09 10:23:59;;;;;;;15.70;13.90;;;23.90;99.90;;;;;;5029453;28;20188;-78
2021/06/09 10:26:24;;;;;;;15.73;12.50;;;23.90;1.00;;;;;;5018040;28;20163;-79
2021/06/09 10:29:08;;;;;;;29.30;26.53;;;24.10;1.00;;;;;;5016971;28;20175;-79
2021/06/09 10:31:37;;;;;;;15.80;13.60;;;24.00;99.90;;;;;;5016128;28;20178;-80
2021/06/09 10:34:03;;;;;;;13.67;12.20;;;24.00;99.90;;;;;;5015189;28;20230;-80
2021/06/09 10:36:31;;;;;;;13.97;12.57;;;24.20;1.00;;;;;;5014729;28;20581;-79
2021/06/09 10:38:57;;;;;;;15.80;14.30;;;24.20;1.00;;;;;;5015099;28;20287;-80
2021/06/09 10:41:24;;;;;;;15.33;13.93;;;24.20;99.90;;;;;;5015948;28;21069;-79
2021/06/09 10:43:53;;;;;;;14.80;13.23;;;24.30;1.00;;;;;;5015971;28;20181;-81
2021/06/09 10:46:25;;;;;;;16.67;13.40;;;24.10;99.90;;;;;;5016609;28;20180;-81
2021/06/09 10:49:03;;;;;;;14.07;12.33;;;24.10;99.90;;;;;;5000106;28;20181;-80
2021/06/09 10:51:29;;;;;;;17.03;13.70;;;24.20;1.00;;;;;;4996577;28;20219;-80
2021/06/09 10:53:58;;;;;;;17.57;12.93;;;24.30;1.00;;;;;;4996570;28;20218;-79
2021/06/09 10:56:24;;;;;;;17.50;15.67;;;24.60;1.00;;;;;;4995491;28;20201;-79
2021/06/09 10:58:52;;;;;;;18.10;16.17;;;24.70;99.90;;;;;;4998109;28;20583;-80
2021/06/09 11:01:30;;;;;;;19.17;17.10;;;24.40;99.90;;;;;;5003608;28;20169;-79
2021/06/09 11:03:57;;;;;;;15.60;13.97;;;24.40;1.00;;;;;;5002002;28;20152;-79
2021/06/09 11:06:43;;;;;;;18.30;16.37;;;24.40;1.00;;;;;;5001636;28;20220;-80
2021/06/09 11:09:14;;;;;;;17.90;16.10;;;24.40;1.00;;;;;;5002635;28;20768;-80
2021/06/09 11:11:40;;;;;;;19.83;17.63;;;24.20;99.90;;;;;;5000352;28;20239;-80
2021/06/09 11:14:25;;;;;;;20.57;17.47;;;24.10;99.90;;;;;;5000583;28;20606;-80
2021/06/09 11:16:53;;;;;;;18.70;16.97;;;24.30;1.00;;;;;;5004185;28;20629;-81
2021/06/09 11:19:38;;;;;;;19.23;15.87;;;24.40;99.90;;;;;;5003744;28;20173;-81
2021/06/09 11:22:20;;;;;;;17.37;15.57;;;24.70;99.90;;;;;;5001423;28;20184;-80
2021/06/09 11:25:19;;;;;;;18.40;16.10;;;24.70;8.50;;;;;;5024351;28;20172;-79
2021/06/09 11:28:06;;;;;;;21.53;19.23;;;24.80;1.00;;;;;;5016934;28;20192;-82
2021/06/09 11:30:45;;;;;;;19.20;16.93;;;24.70;99.90;;;;;;5030971;28;20174;-84
2021/06/09 11:33:43;;;;;;;19.80;17.93;;;24.80;1.00;;;;;;5021815;28;20186;-80
2021/06/09 11:36:31;;;;;;;20.23;18.30;;;24.80;99.90;;;;;;5002240;28;20184;-81
2021/06/09 11:39:06;;;;;;;19.23;17.27;;;24.70;99.90;;;;;;5005043;28;20295;-83
2021/06/09 11:41:48;;;;;;;21.83;19.70;;;25.00;1.00;;;;;;5009060;28;20239;-81
2021/06/09 11:44:25;;;;;;;22.03;19.47;;;25.10;99.90;;;;;;4994872;28;20187;-83
2021/06/09 11:46:51;;;;;;;21.03;18.93;;;24.80;1.00;;;;;;4993780;28;20183;-81
2021/06/09 11:49:42;;;;;;;22.60;20.33;;;24.60;99.90;;;;;;4995621;28;20176;-88
2021/06/09 11:52:08;;;;;;;19.10;17.17;;;24.70;99.90;;;;;;5003573;28;20200;-83
2021/06/09 11:54:36;;;;;;;22.50;20.37;;;24.70;99.90;;;;;;4997226;28;20190;-88
2021/06/09 11:57:18;;;;;;;24.63;22.07;;;24.80;1.00;;;;;;4992544;28;20201;-82
2021/06/09 11:59:46;;;;;;;22.67;19.90;;;24.70;1.00;;;;;;5000609;28;20170;-89
2021/06/09 12:02:25;;;;;;;24.00;21.53;;;24.80;99.90;;;;;;4998490;28;20185;-80
2021/06/09 12:04:52;;;;;;;22.03;18.93;;;24.90;18.90;;;;;;5011865;28;20177;-85
2021/06/09 12:07:23;;;;;;;19.63;17.70;;;25.30;1.00;;;;;;4998659;28;20572;-81
2021/06/09 12:09:50;;;;;;;22.80;20.73;;;25.60;99.90;;;;;;5004606;28;20190;-90
2021/06/09 12:12:33;;;;;;;21.27;19.17;;;25.60;21.90;;;;;;4991513;28;20196;-87
2021/06/09 12:15:14;;;;;;;21.93;19.73;;;25.30;99.90;;;;;;4999570;28;20224;-85
2021/06/09 12:18:00;;;;;;;22.13;20.00;;;25.10;99.90;;;;;;4997667;28;20178;-91
2021/06/09 12:20:26;;;;;;;21.67;19.47;;;24.90;1.00;;;;;;5011221;28;20173;-81
2021/06/09 12:22:56;;;;;;;19.63;17.70;;;24.90;43.30;;;;;;4999325;28;20182;-86
2021/06/09 12:25:28;;;;;;;19.20;17.30;;;25.00;1.00;;;;;;5001402;28;20675;-87
2021/06/09 12:28:11;;;;;;;20.37;18.20;;;25.40;1.00;;;;;;4991375;28;20205;-87
2021/06/09 12:30:54;;;;;;;20.13;18.23;;;25.50;1.00;;;;;;4990735;28;20182;-83
2021/06/09 12:33:20;;;;;;;20.83;18.73;;;25.50;1.00;;;;;;5000116;28;20552;-86
2021/06/09 12:35:51;;;;;;;19.23;17.37;;;25.50;49.40;;;;;;5011850;28;20174;-85
2021/06/09 12:38:26;;;;;;;18.70;15.13;;;25.50;42.10;;;;;;5003051;28;20171;-83
2021/06/09 12:40:56;;;;;;;16.10;14.50;;;25.70;1.00;;;;;;4998765;28;20186;-87
2021/06/09 12:43:41;;;;;;;18.57;16.80;;;25.40;1.00;;;;;;5005360;28;20660;-86
2021/06/09 12:46:33;;;;;;;17.47;15.67;;;25.10;41.00;;;;;;5009619;28;20177;-83
2021/06/09 12:48:59;;;;;;;13.37;11.97;;;25.20;99.90;;;;;;5003511;28;20587;-87
2021/06/09 12:51:25;;;;;;;13.13;11.80;;;25.50;99.90;;;;;;5009076;28;20245;-78
2021/06/09 12:53:52;;;;;;;13.57;10.63;;;25.70;1.00;;;;;;5005642;28;20211;-79
2021/06/09 12:56:17;;;;;;;14.83;13.33;;;26.10;1.00;;;;;;4992000;28;20201;-80
2021/06/09 12:58:43;;;;;;;14.83;13.30;;;26.10;1.00;;;;;;5001146;28;20256;-82
2021/06/09 13:01:11;;;;;;;15.53;14.00;;;26.10;1.00;;;;;;5008323;28;20182;-81
2021/06/09 13:03:38;;;;;;;15.30;13.70;;;26.00;1.00;;;;;;5002521;28;20155;-81